CCA weather

Clinton Municipal Airport
Clinton, Arkansas, United States

Public forecast

Using degrees Fahrenheit for public forecast. Weather courtesy of forecast.io.

METAR (pilot weather report)

Retrieved 2019/08/19 12:35 UTC (23 minutes ago):

KCCA 191235Z AUTO 00000KT 10SM CLR 21/21 A3003 RMK AO2

TAF (pilot weather forecast)

Closest forecast is Little Rock Air Force Base, 43.5 nm (80.5 km) SSE. Retrieved 2019/08/19 07:06 UTC (6 hours ago):

TAF TAF KLRF 190700Z 1907/2013 VRB06KT 9999 FEW100 QNH2993INS BECMG 1915/1916 25009KT 9999 SCT035 QNH2993INS TX36/1921Z TN22/1911Z